sensor_id;sensor_type;location;lat;lon;timestamp;P1;durP1;ratioP1;P2;durP2;ratioP2
64353;SDS011;50681;53.334;-6.536;2022-11-09T00:01:32;15.95;;;2.50;;
64353;SDS011;50681;53.334;-6.536;2022-11-09T00:03:58;20.43;;;3.07;;
64353;SDS011;50681;53.334;-6.536;2022-11-09T00:06:26;19.75;;;4.03;;
64353;SDS011;50681;53.334;-6.536;2022-11-09T00:08:52;20.58;;;2.95;;
64353;SDS011;50681;53.334;-6.536;2022-11-09T00:11:18;15.88;;;2.30;;
64353;SDS011;50681;53.334;-6.536;2022-11-09T00:13:44;20.02;;;3.03;;
64353;SDS011;50681;53.334;-6.536;2022-11-09T00:16:11;18.98;;;2.97;;
64353;SDS011;50681;53.334;-6.536;2022-11-09T00:18:39;16.83;;;2.67;;
64353;SDS011;50681;53.334;-6.536;2022-11-09T00:21:15;14.63;;;3.00;;
64353;SDS011;50681;53.334;-6.536;2022-11-09T00:23:46;16.98;;;3.00;;
64353;SDS011;50681;53.334;-6.536;2022-11-09T00:26:12;16.25;;;2.38;;
64353;SDS011;50681;53.334;-6.536;2022-11-09T00:28:39;13.82;;;3.38;;
64353;SDS011;50681;53.334;-6.536;2022-11-09T00:31:09;13.93;;;2.38;;
64353;SDS011;50681;53.334;-6.536;2022-11-09T00:33:36;11.85;;;2.58;;
64353;SDS011;50681;53.334;-6.536;2022-11-09T00:36:04;20.67;;;2.90;;
64353;SDS011;50681;53.334;-6.536;2022-11-09T00:38:34;13.30;;;2.40;;
64353;SDS011;50681;53.334;-6.536;2022-11-09T00:41:01;11.63;;;2.25;;
64353;SDS011;50681;53.334;-6.536;2022-11-09T00:43:28;13.98;;;1.70;;
64353;SDS011;50681;53.334;-6.536;2022-11-09T00:45:53;10.70;;;2.57;;
64353;SDS011;50681;53.334;-6.536;2022-11-09T00:48:19;17.47;;;2.53;;
64353;SDS011;50681;53.334;-6.536;2022-11-09T00:50:48;12.73;;;2.25;;
64353;SDS011;50681;53.334;-6.536;2022-11-09T00:53:17;20.33;;;2.83;;
64353;SDS011;50681;53.334;-6.536;2022-11-09T00:58:20;22.15;;;2.75;;
64353;SDS011;50681;53.334;-6.536;2022-11-09T01:00:45;21.47;;;2.77;;
64353;SDS011;50681;53.334;-6.536;2022-11-09T01:03:11;17.33;;;2.57;;
64353;SDS011;50681;53.334;-6.536;2022-11-09T01:05:36;12.30;;;2.13;;
64353;SDS011;50681;53.334;-6.536;2022-11-09T01:08:04;14.00;;;2.90;;
64353;SDS011;50681;53.334;-6.536;2022-11-09T01:10:30;13.10;;;3.45;;
64353;SDS011;50681;53.334;-6.536;2022-11-09T01:12:56;17.70;;;2.90;;
64353;SDS011;50681;53.334;-6.536;2022-11-09T01:15:21;18.87;;;2.93;;
64353;SDS011;50681;53.334;-6.536;2022-11-09T01:17:47;21.33;;;2.83;;
64353;SDS011;50681;53.334;-6.536;2022-11-09T01:20:13;22.67;;;2.78;;
64353;SDS011;50681;53.334;-6.536;2022-11-09T01:25:05;17.05;;;2.30;;
64353;SDS011;50681;53.334;-6.536;2022-11-09T01:27:31;14.17;;;2.10;;
64353;SDS011;50681;53.334;-6.536;2022-11-09T01:29:57;14.30;;;2.25;;
64353;SDS011;50681;53.334;-6.536;2022-11-09T01:32:22;10.63;;;1.90;;
64353;SDS011;50681;53.334;-6.536;2022-11-09T01:34:49;14.27;;;2.00;;
64353;SDS011;50681;53.334;-6.536;2022-11-09T01:37:14;13.87;;;2.13;;
64353;SDS011;50681;53.334;-6.536;2022-11-09T01:39:40;13.37;;;2.03;;
64353;SDS011;50681;53.334;-6.536;2022-11-09T01:42:05;17.00;;;2.57;;
64353;SDS011;50681;53.334;-6.536;2022-11-09T01:44:33;13.87;;;2.67;;
64353;SDS011;50681;53.334;-6.536;2022-11-09T01:47:03;11.07;;;2.33;;
64353;SDS011;50681;53.334;-6.536;2022-11-09T01:49:57;14.25;;;2.35;;
64353;SDS011;50681;53.334;-6.536;2022-11-09T01:55:04;23.15;;;2.58;;
64353;SDS011;50681;53.334;-6.536;2022-11-09T01:57:37;14.20;;;2.15;;
64353;SDS011;50681;53.334;-6.536;2022-11-09T02:00:07;13.48;;;2.45;;
64353;SDS011;50681;53.334;-6.536;2022-11-09T02:02:35;22.00;;;3.00;;
64353;SDS011;50681;53.334;-6.536;2022-11-09T02:07:48;18.60;;;2.60;;
64353;SDS011;50681;53.334;-6.536;2022-11-09T02:10:33;14.93;;;2.72;;
64353;SDS011;50681;53.334;-6.536;2022-11-09T02:13:17;13.15;;;2.20;;
64353;SDS011;50681;53.334;-6.536;2022-11-09T02:15:45;10.63;;;2.17;;
64353;SDS011;50681;53.334;-6.536;2022-11-09T02:20:47;13.45;;;2.28;;
64353;SDS011;50681;53.334;-6.536;2022-11-09T02:23:14;17.40;;;3.30;;
64353;SDS011;50681;53.334;-6.536;2022-11-09T02:25:41;13.25;;;2.88;;
64353;SDS011;50681;53.334;-6.536;2022-11-09T02:28:10;19.60;;;2.92;;
64353;SDS011;50681;53.334;-6.536;2022-11-09T02:30:36;16.33;;;2.58;;
64353;SDS011;50681;53.334;-6.536;2022-11-09T02:33:04;11.38;;;2.22;;
64353;SDS011;50681;53.334;-6.536;2022-11-09T02:35:30;14.17;;;2.40;;
64353;SDS011;50681;53.334;-6.536;2022-11-09T02:37:58;22.35;;;2.60;;
64353;SDS011;50681;53.334;-6.536;2022-11-09T02:40:28;15.63;;;2.00;;
64353;SDS011;50681;53.334;-6.536;2022-11-09T02:42:56;8.02;;;2.00;;
64353;SDS011;50681;53.334;-6.536;2022-11-09T02:45:23;11.88;;;2.75;;
64353;SDS011;50681;53.334;-6.536;2022-11-09T02:47:49;20.40;;;2.80;;
64353;SDS011;50681;53.334;-6.536;2022-11-09T02:50:14;8.10;;;1.70;;
64353;SDS011;50681;53.334;-6.536;2022-11-09T02:52:40;21.50;;;2.73;;
64353;SDS011;50681;53.334;-6.536;2022-11-09T02:55:06;26.08;;;3.17;;
64353;SDS011;50681;53.334;-6.536;2022-11-09T02:57:32;19.60;;;2.25;;
64353;SDS011;50681;53.334;-6.536;2022-11-09T02:59:57;23.03;;;2.57;;
64353;SDS011;50681;53.334;-6.536;2022-11-09T03:02:23;13.67;;;2.90;;
64353;SDS011;50681;53.334;-6.536;2022-11-09T03:04:48;17.77;;;3.87;;
64353;SDS011;50681;53.334;-6.536;2022-11-09T03:07:14;14.47;;;2.20;;
64353;SDS011;50681;53.334;-6.536;2022-11-09T03:09:39;18.03;;;2.10;;
64353;SDS011;50681;53.334;-6.536;2022-11-09T03:12:05;19.43;;;2.57;;
64353;SDS011;50681;53.334;-6.536;2022-11-09T03:14:50;14.70;;;2.28;;
64353;SDS011;50681;53.334;-6.536;2022-11-09T03:17:16;20.70;;;2.20;;
64353;SDS011;50681;53.334;-6.536;2022-11-09T03:19:42;10.20;;;2.40;;
64353;SDS011;50681;53.334;-6.536;2022-11-09T03:22:08;17.63;;;2.38;;
64353;SDS011;50681;53.334;-6.536;2022-11-09T03:24:44;12.57;;;1.80;;
64353;SDS011;50681;53.334;-6.536;2022-11-09T03:27:10;15.65;;;2.20;;
64353;SDS011;50681;53.334;-6.536;2022-11-09T03:29:35;17.27;;;4.20;;
64353;SDS011;50681;53.334;-6.536;2022-11-09T03:32:01;19.73;;;2.40;;
64353;SDS011;50681;53.334;-6.536;2022-11-09T03:34:44;13.48;;;1.75;;
64353;SDS011;50681;53.334;-6.536;2022-11-09T03:39:42;12.77;;;2.67;;
64353;SDS011;50681;53.334;-6.536;2022-11-09T03:42:08;14.80;;;2.05;;
64353;SDS011;50681;53.334;-6.536;2022-11-09T03:44:35;17.23;;;2.28;;
64353;SDS011;50681;53.334;-6.536;2022-11-09T03:47:01;22.58;;;2.70;;
64353;SDS011;50681;53.334;-6.536;2022-11-09T03:49:39;13.57;;;2.15;;
64353;SDS011;50681;53.334;-6.536;2022-11-09T03:52:05;20.13;;;3.08;;
64353;SDS011;50681;53.334;-6.536;2022-11-09T03:54:31;20.40;;;2.42;;
64353;SDS011;50681;53.334;-6.536;2022-11-09T03:56:59;11.00;;;2.00;;
64353;SDS011;50681;53.334;-6.536;2022-11-09T03:59:28;17.75;;;1.98;;
64353;SDS011;50681;53.334;-6.536;2022-11-09T04:01:54;9.43;;;2.10;;
64353;SDS011;50681;53.334;-6.536;2022-11-09T04:04:23;22.60;;;3.17;;
64353;SDS011;50681;53.334;-6.536;2022-11-09T04:07:20;18.25;;;2.88;;
64353;SDS011;50681;53.334;-6.536;2022-11-09T04:10:00;12.07;;;1.98;;
64353;SDS011;50681;53.334;-6.536;2022-11-09T04:12:29;20.23;;;1.90;;
64353;SDS011;50681;53.334;-6.536;2022-11-09T04:14:56;17.08;;;2.30;;
64353;SDS011;50681;53.334;-6.536;2022-11-09T04:17:39;11.13;;;1.65;;
64353;SDS011;50681;53.334;-6.536;2022-11-09T04:20:27;19.98;;;2.22;;
64353;SDS011;50681;53.334;-6.536;2022-11-09T04:22:55;8.40;;;1.95;;
64353;SDS011;50681;53.334;-6.536;2022-11-09T04:25:41;11.32;;;1.90;;
64353;SDS011;50681;53.334;-6.536;2022-11-09T04:28:10;14.35;;;2.58;;
64353;SDS011;50681;53.334;-6.536;2022-11-09T04:33:23;27.63;;;2.80;;
64353;SDS011;50681;53.334;-6.536;2022-11-09T04:36:02;15.85;;;2.85;;
64353;SDS011;50681;53.334;-6.536;2022-11-09T04:41:46;17.02;;;1.77;;
64353;SDS011;50681;53.334;-6.536;2022-11-09T04:47:18;16.88;;;1.85;;
64353;SDS011;50681;53.334;-6.536;2022-11-09T04:49:45;15.38;;;2.03;;
64353;SDS011;50681;53.334;-6.536;2022-11-09T04:52:14;16.00;;;2.28;;
64353;SDS011;50681;53.334;-6.536;2022-11-09T04:54:41;15.93;;;1.88;;
64353;SDS011;50681;53.334;-6.536;2022-11-09T04:57:11;13.07;;;2.13;;
64353;SDS011;50681;53.334;-6.536;2022-11-09T04:59:39;12.32;;;1.90;;
64353;SDS011;50681;53.334;-6.536;2022-11-09T05:02:05;9.70;;;1.67;;
64353;SDS011;50681;53.334;-6.536;2022-11-09T05:04:35;11.85;;;1.83;;
64353;SDS011;50681;53.334;-6.536;2022-11-09T05:07:05;9.15;;;1.58;;
64353;SDS011;50681;53.334;-6.536;2022-11-09T05:09:41;6.53;;;1.38;;
64353;SDS011;50681;53.334;-6.536;2022-11-09T05:12:17;10.10;;;1.63;;
64353;SDS011;50681;53.334;-6.536;2022-11-09T05:17:11;11.82;;;1.55;;
64353;SDS011;50681;53.334;-6.536;2022-11-09T05:19:41;13.45;;;1.70;;
64353;SDS011;50681;53.334;-6.536;2022-11-09T05:22:12;12.52;;;1.90;;
64353;SDS011;50681;53.334;-6.536;2022-11-09T05:25:00;8.45;;;1.33;;
64353;SDS011;50681;53.334;-6.536;2022-11-09T05:27:27;11.20;;;1.75;;
64353;SDS011;50681;53.334;-6.536;2022-11-09T05:29:58;17.77;;;2.22;;
64353;SDS011;50681;53.334;-6.536;2022-11-09T05:32:35;9.75;;;2.00;;
64353;SDS011;50681;53.334;-6.536;2022-11-09T05:35:04;14.73;;;1.73;;
64353;SDS011;50681;53.334;-6.536;2022-11-09T05:37:32;11.52;;;1.85;;
64353;SDS011;50681;53.334;-6.536;2022-11-09T05:39:59;19.65;;;2.10;;
64353;SDS011;50681;53.334;-6.536;2022-11-09T05:42:36;11.38;;;1.55;;
64353;SDS011;50681;53.334;-6.536;2022-11-09T05:45:08;23.23;;;3.05;;
64353;SDS011;50681;53.334;-6.536;2022-11-09T05:47:42;10.55;;;1.45;;
64353;SDS011;50681;53.334;-6.536;2022-11-09T05:50:14;18.52;;;2.00;;
64353;SDS011;50681;53.334;-6.536;2022-11-09T05:53:03;17.10;;;2.10;;
64353;SDS011;50681;53.334;-6.536;2022-11-09T05:55:29;10.55;;;2.22;;
64353;SDS011;50681;53.334;-6.536;2022-11-09T05:57:56;26.33;;;2.45;;
64353;SDS011;50681;53.334;-6.536;2022-11-09T06:00:33;13.48;;;2.20;;
64353;SDS011;50681;53.334;-6.536;2022-11-09T06:03:07;21.05;;;2.13;;
64353;SDS011;50681;53.334;-6.536;2022-11-09T06:05:36;13.35;;;2.17;;
64353;SDS011;50681;53.334;-6.536;2022-11-09T06:08:07;13.65;;;1.83;;
64353;SDS011;50681;53.334;-6.536;2022-11-09T06:10:38;15.73;;;2.15;;
64353;SDS011;50681;53.334;-6.536;2022-11-09T06:13:06;15.20;;;3.00;;
64353;SDS011;50681;53.334;-6.536;2022-11-09T06:18:25;20.15;;;1.98;;
64353;SDS011;50681;53.334;-6.536;2022-11-09T06:20:57;20.17;;;2.47;;
64353;SDS011;50681;53.334;-6.536;2022-11-09T06:23:29;15.25;;;2.00;;
64353;SDS011;50681;53.334;-6.536;2022-11-09T06:26:08;16.23;;;1.80;;
64353;SDS011;50681;53.334;-6.536;2022-11-09T06:28:36;16.05;;;1.73;;
64353;SDS011;50681;53.334;-6.536;2022-11-09T06:31:05;13.05;;;3.03;;
64353;SDS011;50681;53.334;-6.536;2022-11-09T06:33:42;27.33;;;5.15;;
64353;SDS011;50681;53.334;-6.536;2022-11-09T06:36:09;11.77;;;2.60;;
64353;SDS011;50681;53.334;-6.536;2022-11-09T06:38:38;17.33;;;3.40;;
64353;SDS011;50681;53.334;-6.536;2022-11-09T06:41:05;20.30;;;1.92;;
64353;SDS011;50681;53.334;-6.536;2022-11-09T06:43:35;7.30;;;1.42;;
64353;SDS011;50681;53.334;-6.536;2022-11-09T06:46:13;16.45;;;1.75;;
64353;SDS011;50681;53.334;-6.536;2022-11-09T06:51:51;23.83;;;2.33;;
64353;SDS011;50681;53.334;-6.536;2022-11-09T06:54:45;11.07;;;1.50;;
64353;SDS011;50681;53.334;-6.536;2022-11-09T07:00:21;16.65;;;1.65;;
64353;SDS011;50681;53.334;-6.536;2022-11-09T07:02:53;12.00;;;2.00;;
64353;SDS011;50681;53.334;-6.536;2022-11-09T07:05:19;9.02;;;1.58;;
64353;SDS011;50681;53.334;-6.536;2022-11-09T07:10:12;5.72;;;1.73;;
64353;SDS011;50681;53.334;-6.536;2022-11-09T07:12:38;8.63;;;1.80;;
64353;SDS011;50681;53.334;-6.536;2022-11-09T07:15:06;10.30;;;1.85;;
64353;SDS011;50681;53.334;-6.536;2022-11-09T07:17:34;16.40;;;1.70;;
64353;SDS011;50681;53.334;-6.536;2022-11-09T07:20:07;14.77;;;1.73;;
64353;SDS011;50681;53.334;-6.536;2022-11-09T07:22:34;14.30;;;1.63;;
64353;SDS011;50681;53.334;-6.536;2022-11-09T07:25:05;7.25;;;1.55;;
64353;SDS011;50681;53.334;-6.536;2022-11-09T07:27:32;11.18;;;1.67;;
64353;SDS011;50681;53.334;-6.536;2022-11-09T07:30:01;10.18;;;1.77;;
64353;SDS011;50681;53.334;-6.536;2022-11-09T07:32:37;10.68;;;1.45;;
64353;SDS011;50681;53.334;-6.536;2022-11-09T07:35:07;13.93;;;1.83;;
64353;SDS011;50681;53.334;-6.536;2022-11-09T07:37:36;9.88;;;1.63;;
64353;SDS011;50681;53.334;-6.536;2022-11-09T07:40:03;7.03;;;1.42;;
64353;SDS011;50681;53.334;-6.536;2022-11-09T07:42:31;11.80;;;1.38;;
64353;SDS011;50681;53.334;-6.536;2022-11-09T07:44:57;12.75;;;1.58;;
64353;SDS011;50681;53.334;-6.536;2022-11-09T07:47:30;5.22;;;0.93;;
64353;SDS011;50681;53.334;-6.536;2022-11-09T07:50:02;7.68;;;1.40;;
64353;SDS011;50681;53.334;-6.536;2022-11-09T07:52:38;10.20;;;1.30;;
64353;SDS011;50681;53.334;-6.536;2022-11-09T07:57:34;11.98;;;1.23;;
64353;SDS011;50681;53.334;-6.536;2022-11-09T08:00:35;6.93;;;1.38;;
64353;SDS011;50681;53.334;-6.536;2022-11-09T08:03:10;12.43;;;1.40;;
64353;SDS011;50681;53.334;-6.536;2022-11-09T08:06:04;10.65;;;1.40;;
64353;SDS011;50681;53.334;-6.536;2022-11-09T08:08:38;7.32;;;1.60;;
64353;SDS011;50681;53.334;-6.536;2022-11-09T08:11:23;8.27;;;1.70;;
64353;SDS011;50681;53.334;-6.536;2022-11-09T08:13:51;12.80;;;1.45;;
64353;SDS011;50681;53.334;-6.536;2022-11-09T08:16:21;9.63;;;1.50;;
64353;SDS011;50681;53.334;-6.536;2022-11-09T08:18:51;8.18;;;1.75;;
64353;SDS011;50681;53.334;-6.536;2022-11-09T08:21:18;12.32;;;1.88;;
64353;SDS011;50681;53.334;-6.536;2022-11-09T08:23:53;9.57;;;1.40;;
64353;SDS011;50681;53.334;-6.536;2022-11-09T08:26:21;7.40;;;1.20;;
64353;SDS011;50681;53.334;-6.536;2022-11-09T08:28:48;13.98;;;1.90;;
64353;SDS011;50681;53.334;-6.536;2022-11-09T08:31:24;7.55;;;1.00;;
64353;SDS011;50681;53.334;-6.536;2022-11-09T08:33:52;2.95;;;1.10;;
64353;SDS011;50681;53.334;-6.536;2022-11-09T08:38:45;7.40;;;1.50;;
64353;SDS011;50681;53.334;-6.536;2022-11-09T08:41:33;7.25;;;1.10;;
64353;SDS011;50681;53.334;-6.536;2022-11-09T08:44:00;12.30;;;2.17;;
64353;SDS011;50681;53.334;-6.536;2022-11-09T08:46:27;8.05;;;1.60;;
64353;SDS011;50681;53.334;-6.536;2022-11-09T08:48:57;10.75;;;1.48;;
64353;SDS011;50681;53.334;-6.536;2022-11-09T08:51:24;14.63;;;1.88;;
64353;SDS011;50681;53.334;-6.536;2022-11-09T08:53:52;8.25;;;1.30;;
64353;SDS011;50681;53.334;-6.536;2022-11-09T08:56:26;8.05;;;1.20;;
64353;SDS011;50681;53.334;-6.536;2022-11-09T08:59:19;12.85;;;1.50;;
64353;SDS011;50681;53.334;-6.536;2022-11-09T09:02:02;6.90;;;1.10;;
64353;SDS011;50681;53.334;-6.536;2022-11-09T09:04:32;4.45;;;1.13;;
64353;SDS011;50681;53.334;-6.536;2022-11-09T09:07:17;7.30;;;1.23;;
64353;SDS011;50681;53.334;-6.536;2022-11-09T09:09:46;6.95;;;1.50;;
64353;SDS011;50681;53.334;-6.536;2022-11-09T09:12:22;7.30;;;1.20;;
64353;SDS011;50681;53.334;-6.536;2022-11-09T09:14:55;9.27;;;1.30;;
64353;SDS011;50681;53.334;-6.536;2022-11-09T09:17:22;5.20;;;1.33;;
64353;SDS011;50681;53.334;-6.536;2022-11-09T09:19:59;7.20;;;1.40;;
64353;SDS011;50681;53.334;-6.536;2022-11-09T09:22:27;5.47;;;0.98;;
64353;SDS011;50681;53.334;-6.536;2022-11-09T09:24:54;13.68;;;1.80;;
64353;SDS011;50681;53.334;-6.536;2022-11-09T09:27:25;7.63;;;1.25;;
64353;SDS011;50681;53.334;-6.536;2022-11-09T09:29:56;5.78;;;1.25;;
64353;SDS011;50681;53.334;-6.536;2022-11-09T09:32:26;9.10;;;1.90;;
64353;SDS011;50681;53.334;-6.536;2022-11-09T09:35:03;13.40;;;2.10;;
64353;SDS011;50681;53.334;-6.536;2022-11-09T09:37:29;13.10;;;2.05;;
64353;SDS011;50681;53.334;-6.536;2022-11-09T09:40:07;8.57;;;1.35;;
64353;SDS011;50681;53.334;-6.536;2022-11-09T09:42:46;10.70;;;1.25;;
64353;SDS011;50681;53.334;-6.536;2022-11-09T09:45:17;8.93;;;1.30;;
64353;SDS011;50681;53.334;-6.536;2022-11-09T09:50:39;6.47;;;1.40;;
64353;SDS011;50681;53.334;-6.536;2022-11-09T09:53:32;5.85;;;1.20;;
64353;SDS011;50681;53.334;-6.536;2022-11-09T09:58:41;7.72;;;1.63;;
64353;SDS011;50681;53.334;-6.536;2022-11-09T10:01:16;4.20;;;1.10;;
64353;SDS011;50681;53.334;-6.536;2022-11-09T10:03:49;9.13;;;2.28;;
64353;SDS011;50681;53.334;-6.536;2022-11-09T10:17:27;14.07;;;1.73;;
64353;SDS011;50681;53.334;-6.536;2022-11-09T10:25:45;12.45;;;1.67;;
64353;SDS011;50681;53.334;-6.536;2022-11-09T10:28:29;12.50;;;1.88;;
64353;SDS011;50681;53.334;-6.536;2022-11-09T10:31:21;12.98;;;2.35;;
64353;SDS011;50681;53.334;-6.536;2022-11-09T10:33:52;17.48;;;2.20;;
64353;SDS011;50681;53.334;-6.536;2022-11-09T10:36:28;9.07;;;1.50;;
64353;SDS011;50681;53.334;-6.536;2022-11-09T10:39:20;13.17;;;1.60;;
64353;SDS011;50681;53.334;-6.536;2022-11-09T10:41:49;10.20;;;1.70;;
64353;SDS011;50681;53.334;-6.536;2022-11-09T10:44:18;6.70;;;0.98;;
64353;SDS011;50681;53.334;-6.536;2022-11-09T10:47:04;12.63;;;1.85;;
64353;SDS011;50681;53.334;-6.536;2022-11-09T10:49:33;17.55;;;2.13;;
64353;SDS011;50681;53.334;-6.536;2022-11-09T10:52:01;11.40;;;2.20;;
64353;SDS011;50681;53.334;-6.536;2022-11-09T10:54:30;14.57;;;2.03;;
64353;SDS011;50681;53.334;-6.536;2022-11-09T10:57:22;13.57;;;1.48;;
64353;SDS011;50681;53.334;-6.536;2022-11-09T10:59:55;12.10;;;1.92;;
64353;SDS011;50681;53.334;-6.536;2022-11-09T11:02:38;16.85;;;1.83;;
64353;SDS011;50681;53.334;-6.536;2022-11-09T11:05:40;19.00;;;1.92;;
64353;SDS011;50681;53.334;-6.536;2022-11-09T11:11:36;12.93;;;2.08;;
64353;SDS011;50681;53.334;-6.536;2022-11-09T11:19:50;11.77;;;1.77;;
64353;SDS011;50681;53.334;-6.536;2022-11-09T11:22:24;16.25;;;1.70;;
64353;SDS011;50681;53.334;-6.536;2022-11-09T11:25:04;14.73;;;2.10;;
64353;SDS011;50681;53.334;-6.536;2022-11-09T11:27:54;18.80;;;2.92;;
64353;SDS011;50681;53.334;-6.536;2022-11-09T11:30:31;12.52;;;3.03;;
64353;SDS011;50681;53.334;-6.536;2022-11-09T11:33:20;14.73;;;5.00;;
64353;SDS011;50681;53.334;-6.536;2022-11-09T11:44:51;13.00;;;3.10;;
64353;SDS011;50681;53.334;-6.536;2022-11-09T11:50:31;12.02;;;3.15;;
64353;SDS011;50681;53.334;-6.536;2022-11-09T11:56:39;17.60;;;2.95;;
64353;SDS011;50681;53.334;-6.536;2022-11-09T12:10:13;15.43;;;2.47;;
64353;SDS011;50681;53.334;-6.536;2022-11-09T12:16:03;20.40;;;3.25;;
64353;SDS011;50681;53.334;-6.536;2022-11-09T12:18:50;21.70;;;3.58;;
64353;SDS011;50681;53.334;-6.536;2022-11-09T12:24:18;24.55;;;3.38;;
64353;SDS011;50681;53.334;-6.536;2022-11-09T12:34:59;22.38;;;5.60;;
64353;SDS011;50681;53.334;-6.536;2022-11-09T12:37:55;15.90;;;2.70;;
64353;SDS011;50681;53.334;-6.536;2022-11-09T12:40:34;14.38;;;3.35;;
64353;SDS011;50681;53.334;-6.536;2022-11-09T12:43:15;22.52;;;5.88;;
64353;SDS011;50681;53.334;-6.536;2022-11-09T12:45:47;16.30;;;3.30;;
64353;SDS011;50681;53.334;-6.536;2022-11-09T12:48:21;15.10;;;3.95;;
64353;SDS011;50681;53.334;-6.536;2022-11-09T12:51:02;21.17;;;5.85;;
64353;SDS011;50681;53.334;-6.536;2022-11-09T12:53:37;11.25;;;1.83;;
64353;SDS011;50681;53.334;-6.536;2022-11-09T12:56:34;15.98;;;3.25;;
64353;SDS011;50681;53.334;-6.536;2022-11-09T12:59:48;21.23;;;4.68;;
64353;SDS011;50681;53.334;-6.536;2022-11-09T13:05:03;12.50;;;4.90;;
64353;SDS011;50681;53.334;-6.536;2022-11-09T13:13:35;11.25;;;2.92;;
64353;SDS011;50681;53.334;-6.536;2022-11-09T13:19:00;6.30;;;1.42;;
64353;SDS011;50681;53.334;-6.536;2022-11-09T13:23:54;10.93;;;3.47;;
64353;SDS011;50681;53.334;-6.536;2022-11-09T13:29:46;13.20;;;4.03;;
64353;SDS011;50681;53.334;-6.536;2022-11-09T13:32:26;16.52;;;3.05;;
64353;SDS011;50681;53.334;-6.536;2022-11-09T13:39:59;11.10;;;1.85;;
64353;SDS011;50681;53.334;-6.536;2022-11-09T13:43:20;13.80;;;2.55;;
64353;SDS011;50681;53.334;-6.536;2022-11-09T13:48:29;10.45;;;1.83;;
64353;SDS011;50681;53.334;-6.536;2022-11-09T13:54:01;9.60;;;2.10;;
64353;SDS011;50681;53.334;-6.536;2022-11-09T13:56:53;9.38;;;2.22;;
64353;SDS011;50681;53.334;-6.536;2022-11-09T13:59:25;22.40;;;9.55;;
64353;SDS011;50681;53.334;-6.536;2022-11-09T14:02:00;42.20;;;18.85;;
64353;SDS011;50681;53.334;-6.536;2022-11-09T14:07:06;19.58;;;7.10;;
64353;SDS011;50681;53.334;-6.536;2022-11-09T14:23:50;14.13;;;2.95;;
64353;SDS011;50681;53.334;-6.536;2022-11-09T14:26:05;12.15;;;2.05;;
64353;SDS011;50681;53.334;-6.536;2022-11-09T14:28:32;9.88;;;2.15;;
64353;SDS011;50681;53.334;-6.536;2022-11-09T14:30:59;13.73;;;2.42;;
64353;SDS011;50681;53.334;-6.536;2022-11-09T14:33:29;12.25;;;2.22;;
64353;SDS011;50681;53.334;-6.536;2022-11-09T14:36:01;9.85;;;1.98;;
64353;SDS011;50681;53.334;-6.536;2022-11-09T14:38:34;17.55;;;2.33;;
64353;SDS011;50681;53.334;-6.536;2022-11-09T14:41:22;8.75;;;2.03;;
64353;SDS011;50681;53.334;-6.536;2022-11-09T14:43:56;7.95;;;1.50;;
64353;SDS011;50681;53.334;-6.536;2022-11-09T14:49:00;20.30;;;2.95;;
64353;SDS011;50681;53.334;-6.536;2022-11-09T14:51:40;13.75;;;2.20;;
64353;SDS011;50681;53.334;-6.536;2022-11-09T14:54:10;8.18;;;2.03;;
64353;SDS011;50681;53.334;-6.536;2022-11-09T14:56:39;13.98;;;2.30;;
64353;SDS011;50681;53.334;-6.536;2022-11-09T14:59:08;15.25;;;2.30;;
64353;SDS011;50681;53.334;-6.536;2022-11-09T15:01:59;8.35;;;1.98;;
64353;SDS011;50681;53.334;-6.536;2022-11-09T15:04:49;11.20;;;2.13;;
64353;SDS011;50681;53.334;-6.536;2022-11-09T15:07:26;11.20;;;2.33;;
64353;SDS011;50681;53.334;-6.536;2022-11-09T15:09:59;8.55;;;2.17;;
64353;SDS011;50681;53.334;-6.536;2022-11-09T15:12:33;10.18;;;2.67;;
64353;SDS011;50681;53.334;-6.536;2022-11-09T15:15:03;17.50;;;2.65;;
64353;SDS011;50681;53.334;-6.536;2022-11-09T15:17:33;10.77;;;2.15;;
64353;SDS011;50681;53.334;-6.536;2022-11-09T15:22:48;14.68;;;2.45;;
64353;SDS011;50681;53.334;-6.536;2022-11-09T15:30:43;12.88;;;2.22;;
64353;SDS011;50681;53.334;-6.536;2022-11-09T15:35:53;23.85;;;4.18;;
64353;SDS011;50681;53.334;-6.536;2022-11-09T15:38:31;15.98;;;2.58;;
64353;SDS011;50681;53.334;-6.536;2022-11-09T15:41:10;15.32;;;3.35;;
64353;SDS011;50681;53.334;-6.536;2022-11-09T15:43:40;12.70;;;2.28;;
64353;SDS011;50681;53.334;-6.536;2022-11-09T15:46:11;13.27;;;2.20;;
64353;SDS011;50681;53.334;-6.536;2022-11-09T15:48:40;13.70;;;2.17;;
64353;SDS011;50681;53.334;-6.536;2022-11-09T15:51:10;19.45;;;2.65;;
64353;SDS011;50681;53.334;-6.536;2022-11-09T15:53:41;15.73;;;2.35;;
64353;SDS011;50681;53.334;-6.536;2022-11-09T15:58:42;14.15;;;2.22;;
64353;SDS011;50681;53.334;-6.536;2022-11-09T16:01:13;24.98;;;8.48;;
64353;SDS011;50681;53.334;-6.536;2022-11-09T16:03:40;17.95;;;4.80;;
64353;SDS011;50681;53.334;-6.536;2022-11-09T16:06:17;29.80;;;13.93;;
64353;SDS011;50681;53.334;-6.536;2022-11-09T16:08:59;25.48;;;11.00;;
64353;SDS011;50681;53.334;-6.536;2022-11-09T16:11:28;23.00;;;5.40;;
64353;SDS011;50681;53.334;-6.536;2022-11-09T16:14:05;16.95;;;6.05;;
64353;SDS011;50681;53.334;-6.536;2022-11-09T16:16:36;15.70;;;4.50;;
64353;SDS011;50681;53.334;-6.536;2022-11-09T16:19:05;18.85;;;5.07;;
64353;SDS011;50681;53.334;-6.536;2022-11-09T16:21:31;17.08;;;4.50;;
64353;SDS011;50681;53.334;-6.536;2022-11-09T16:23:57;20.17;;;8.15;;
64353;SDS011;50681;53.334;-6.536;2022-11-09T16:26:27;21.42;;;5.97;;
64353;SDS011;50681;53.334;-6.536;2022-11-09T16:28:57;15.77;;;6.57;;
64353;SDS011;50681;53.334;-6.536;2022-11-09T16:31:24;14.85;;;4.57;;
64353;SDS011;50681;53.334;-6.536;2022-11-09T16:33:52;12.32;;;3.25;;
64353;SDS011;50681;53.334;-6.536;2022-11-09T16:36:19;15.82;;;4.30;;
64353;SDS011;50681;53.334;-6.536;2022-11-09T16:38:50;18.63;;;5.30;;
64353;SDS011;50681;53.334;-6.536;2022-11-09T16:41:22;16.40;;;6.70;;
64353;SDS011;50681;53.334;-6.536;2022-11-09T16:43:52;15.05;;;5.97;;
64353;SDS011;50681;53.334;-6.536;2022-11-09T16:46:24;18.42;;;6.65;;
64353;SDS011;50681;53.334;-6.536;2022-11-09T16:48:58;11.48;;;3.25;;
64353;SDS011;50681;53.334;-6.536;2022-11-09T16:51:49;14.25;;;3.00;;
64353;SDS011;50681;53.334;-6.536;2022-11-09T16:54:19;11.15;;;2.55;;
64353;SDS011;50681;53.334;-6.536;2022-11-09T16:56:48;13.25;;;3.38;;
64353;SDS011;50681;53.334;-6.536;2022-11-09T16:59:18;15.63;;;2.42;;
64353;SDS011;50681;53.334;-6.536;2022-11-09T17:02:19;17.83;;;3.90;;
64353;SDS011;50681;53.334;-6.536;2022-11-09T17:04:48;16.17;;;3.50;;
64353;SDS011;50681;53.334;-6.536;2022-11-09T17:07:15;13.18;;;3.85;;
64353;SDS011;50681;53.334;-6.536;2022-11-09T17:09:47;21.05;;;5.57;;
64353;SDS011;50681;53.334;-6.536;2022-11-09T17:12:16;16.80;;;4.95;;
64353;SDS011;50681;53.334;-6.536;2022-11-09T17:14:44;18.20;;;4.00;;
64353;SDS011;50681;53.334;-6.536;2022-11-09T17:17:15;19.77;;;4.85;;
64353;SDS011;50681;53.334;-6.536;2022-11-09T17:19:48;19.70;;;4.95;;
64353;SDS011;50681;53.334;-6.536;2022-11-09T17:22:32;27.38;;;6.60;;
64353;SDS011;50681;53.334;-6.536;2022-11-09T17:24:59;31.48;;;5.15;;
64353;SDS011;50681;53.334;-6.536;2022-11-09T17:27:25;15.50;;;3.03;;
64353;SDS011;50681;53.334;-6.536;2022-11-09T17:29:52;35.33;;;13.75;;
64353;SDS011;50681;53.334;-6.536;2022-11-09T17:32:20;54.70;;;23.40;;
64353;SDS011;50681;53.334;-6.536;2022-11-09T17:34:50;32.58;;;14.63;;
64353;SDS011;50681;53.334;-6.536;2022-11-09T17:37:29;26.48;;;8.25;;
64353;SDS011;50681;53.334;-6.536;2022-11-09T17:40:02;23.45;;;8.27;;
64353;SDS011;50681;53.334;-6.536;2022-11-09T17:42:51;26.23;;;8.65;;
64353;SDS011;50681;53.334;-6.536;2022-11-09T17:45:44;24.90;;;6.30;;
64353;SDS011;50681;53.334;-6.536;2022-11-09T17:48:16;22.45;;;5.82;;
64353;SDS011;50681;53.334;-6.536;2022-11-09T17:50:43;29.35;;;5.78;;